18ème Rallye National Terre de Langres
Championnat de France des Rallyes sur Terre
1 4 MAURIN Julien/URAL Olivier Citroën DS3 WRC A 8W 6:11,3 96km/h 1
2 5 TRON Noel/OBRECHT Justine Citroën DS3 WRC A 8W 6:13,7 +00:02,4 +00:02,4 1
3 3 CUOQ Jean-Marie/GRANDEMANGE Marielle Citroën C4 WRC FA 8W 6:18,8 +00:07,5 +00:05,1 1
4 2 DURBEC Thibault/RENUCCI Jacques-Julien Citroën DS3 WRC A 8W 6:19,5 +00:08,2 +00:00,7 1
5 9 AMOURETTE Marc/MARIE Gwenola Citroën DS3 R5 R 5 6:30,6 +00:19,3 +00:11,1
6 7 FERAUD Cyrille/DUCHEMIN Aymeric Citroën C4 WRC FA 8W 6:36,5 +00:25,2 +00:05,9 1
7 1 BERFA Jordan/AUGUSTIN Damien HUYNDAI i20 R5 R 5 6:38,1 +00:26,8 +00:01,6 1
8 8 MORDACQ Arnaud/RATIER Marie-Noelle Mitsubishi Lancer Evo9 FN 4 6:43,3 +00:32,0 +00:05,2 1
9 16 PELUTTIERO Thibaud/REICHENECKER Josh Mitsubishi Lancer EvoX R 4 7:10,8 +00:59,5 +00:27,5 1
10 14 CECCHI Philippe/LETOURNEAU Lara Citroën DS3 R5 R 5 7:14,5 +01:03,2 +00:03,7
11 31 COLNEY Thierry/FORTMANN Patrick Citroën DS3 R3 R 3 7:16,7 +01:05,4 +00:02,2 1 2
12 23 BENIER Thomas/PRASSE Cédric Subaru Impreza WRX N 4 7:17,7 +01:06,4 +00:01,0 1
13 19 CHAYNES Gary/TRIBOUT Christian Mitsubishi Lancer Evo6 FA 8 7:18,0 +01:06,7 +00:00,3 1
14 26 DELOY David/OGIER Cédric Mitsubishi Lancer EvoX N 4 7:19,4 +01:08,1 +00:01,4
15 30 ASTIER Loïc/DECLERCK Loïc Citroën DS3 R3 R 3 7:22,7 +01:11,4 +00:03,3 1 2
16 18 SALIN Daniel/SALIN Brigitte Subaru Impreza WRX R 4 7:26,7 +01:15,4 +00:04,0
17 25 MOREL Jean-Luc/GIDEL Philippe Subaru Impreza WRX FN 4 7:27,2 +01:15,9 +00:00,5
18 12 BESSON Jean-Pascal/ROISSAC Patrice Skoda Fabia R5 R 5 7:32,1 +01:20,8 +00:04,9 1
19 39 MASCLAUX Arnaud/MOULIN Alexandre Renault Clio Ragnotti F2 14 7:33,7 +01:22,4 +00:01,6 1 2
20 24 MARTI Christian/LAVIALE Jean-Marc Mitsubishi Lancer Evo9 FN 4 7:36,5 +01:25,2 +00:02,8 1
21 20 GAIDOZ Hervé/RICHARD François Subaru Impreza WRX FA 8 7:39,6 +01:28,3 +00:03,1 1
22 42 FRANCESCHI Jean-Baptiste/COURBON Romain Ford Fiesta R2J R 2 7:43,2 +01:31,9 +00:03,6 4
23 45 FOURMAUX Adrien/FOURMAUX Maxime Ford Fiesta R2J R 2 7:44,9 +01:33,6 +00:01,7 4
24 54 MARGAILLAN Hugo/POUJOL Sébastien Ford Fiesta R2J R 2 7:46,6 +01:35,3 +00:01,7 4
25 48 JOUINES Jean/CHABBERT Martin Ford Fiesta R2J R 2 7:46,6 +01:35,3 4
26 57 CARTIER Victor/CRAEN Fabien Ford Fiesta R2J R 2 7:47,8 +01:36,5 +00:01,2 4
27 37 GUINCHARD Emmanuel/CHATELAIN Mickaël Peugeot 207 Rc R 3 7:51,5 +01:40,2 +00:03,7
28 43 DI FANTE Romain/TEMPIER Romain Ford Fiesta R2J R 2 7:52,5 +01:41,2 +00:01,0 4
29 40 VITAL Jean-Pierre/YVERNAULT Eric Citroën Saxo VTS F2 13 7:58,8 +01:47,5 +00:06,3 1 2
30 49 GOUPIL Jocerand/CIANFARANI Anthoni Ford Fiesta R2J R 2 7:59,2 +01:47,9 +00:00,4 4
31 62 CHALAL Theo/LE FLOCH Franck Ford Fiesta R2J R 2 7:59,9 +01:48,6 +00:00,7 4
32 47 CHANTRIAUX Audric/PEREZ Laëtitia Ford Fiesta R2J R 2 8:00,5 +01:49,2 +00:00,6 4
33 66 CACHOD Sylvain/POURCELOT Aurélien Citroën C2 R2 R 2 8:02,5 +01:51,2 +00:02,0
34 38 JULIA David/AUBERTIN Ludovic Peugeot 206 Rc F2 14 8:03,2 +01:51,9 +00:00,7 1 2
35 41 SABATIER Florent/SANTIAGO Thomas Peugeot 106 S16 FA 6 8:03,9 +01:52,6 +00:00,7 1 2
36 35 FRANCE Julien/MAZARGUIL Philippe Citroën DS3 R3 R 3 8:04,3 +01:53,0 +00:00,4
37 27 PRIOLO Laurent/PRIOLO Cindy Mitsubishi Lancer Evo9 FN 4 8:06,7 +01:55,4 +00:02,4
38 63 MOLLARD Alexandre/EYMIN Nicolas Peugeot 208 VTI R 2 8:08,9 +01:57,6 +00:02,2
39 51 MOUSTIN Doriann/DESNOYER Alexia Ford Fiesta R2J R 2 8:09,8 +01:58,5 +00:00,9 4
40 61 CORNU Alexandre/FASSOLA Thibault Ford Fiesta R2J R 2 8:11,0 +01:59,7 +00:01,2 4
41 33 BOUCHET Guillaume/BLAMPEY Fabien Peugeot 207 Rc R 3 8:11,2 +01:59,9 +00:00,2
42 65 FRANCESCHI Mathieu/BELHACENE Matthieu Citroën C2 R2 R 2 8:14,1 +02:02,8 +00:02,9
43 69 QUARROZ Damien/VOLPI Cécile Citroën Saxo T4 FA 6K 8:14,3 +02:03,0 +00:00,2
44 55 PONTAL Julien/BARRAL Florian Ford Fiesta R2J R 2 8:16,5 +02:05,2 +00:02,2 4
45 64 GUIBERT Jean-Christophe/GRACIAL Laurent Ford Fiesta R2 R 2 8:20,2 +02:08,9 +00:03,7
46 29 DAZY Jean-Pierre/LOIZEAUX Didier Renault Clio R3 R 3 8:20,4 +02:09,1 +00:00,2 1 2
47 78 RAYNAUD Gabriel/JULIEN William Seat Ibiza GTI F2 14 8:20,5 +02:09,2 +00:00,1 1 2
48 75 LAGIER Fabrice/DUPONT Romuald Peugeot 306 S16 FA 7 8:21,1 +02:09,8 +00:00,6
49 74 TATIN Xavier/BAUMET Eddie Peugeot 306 S16 FA 7 8:22,0 +02:10,7 +00:00,9
50 50 CURIOZ Benjamin/BEERENS Pierre Ford Fiesta R2J R 2 8:25,1 +02:13,8 +00:03,1 4
51 44 BOULENC Benjamin/DOS REIS Sébastien Ford Fiesta R2J R 2 8:28,5 +02:17,2 +00:03,4 4
52 85 GERMAIN Alex/POIROT Edgard Peugeot 205 GTI F2 13 8:31,7 +02:20,4 +00:03,2
53 52 GIUSTI Igor/DINI Gilbert Ford Fiesta R2J R 2 8:32,7 +02:21,4 +00:01,0 4
54 32 JOUINES Rémi/MAHEO Arnaud Peugeot 207 Rc R 3 8:37,5 +02:26,2 +00:04,8 1 2
55 68 PAILLER Julien/HENQUINET Sébastien Citroën Saxo T4 FA 6K 8:39,0 +02:27,7 +00:01,5
56 88 BRISSON Eddy/MASSON Pascal Suzuki Swift Sport FN 2 8:40,1 +02:28,8 +00:01,1
57 53 GANDELLI David/BIAGETTI Loan Ford Fiesta R2J R 2 8:42,0 +02:30,7 +00:01,9 4
58 56 VIAROUGE David/BENZAL Aurélien Ford Fiesta R2J R 2 8:45,2 +02:33,9 +00:03,2 4
59 84 FOURNIER Nicolas/VATTEAU Kévin Peugeot 206 XS F2 13 8:46,2 +02:34,9 +00:01,0 1 2
60 82 DUCLAUX Julien/AMALBERTI Cédric Peugeot 206 Rc FN 3 8:49,6 +02:38,3 +00:03,4
61 94 VUITTENEZ Victorien/COTE COLISSON Maxime Peugeot 106 XSI FN 1 8:55,8 +02:44,5 +00:06,2
62 36 SPART Patrick/CATTIN Charline Peugeot 207 Rc R 3 8:56,7 +02:45,4 +00:00,9
63 71 COLOMBE Geoffroy/FABREGUE Régis Peugeot 206 XS FA 6K 9:00,2 +02:48,9 +00:03,5
64 70 BRENIAUX Sébastien/JACQUES Anthony Peugeot 206 XS FA 6K 9:08,2 +02:56,9 +00:08,0
65 58 VIANO Allison/CHOL Cecilia Ford Fiesta R2J R 2 9:08,5 +02:57,2 +00:00,3 4
66 81 VIDAL Marc/MONTARON Loïc Peugeot 309 GTI 16S F2 14 9:23,3 +03:12,0 +00:14,8
67 87 MOUGIN Jules/ROUMETTE Clemence Peugeot 106 Rallye FA 5 9:25,0 +03:13,7 +00:01,7
68 77 STUDER Maude/STUDER Sébastien Peugeot 206 GT FA 7 9:29,5 +03:18,2 +00:04,5
69 72 FETY Fabrice/ROLLION Thomas Peugeot 206 XS FA 6K 9:31,5 +03:20,2 +00:02,0
70 22 GLEY Jean-Pierre/JEUDY Nicolas B.M.W. 325 iX FA 8 9:43,3 +03:32,0 +00:11,8
71 89 DOLGOPYATOFF Damien/PERRIN Christelle Suzuki Swift Sport FN 2 9:51,9 +03:40,6 +00:08,6
72 80 REYNAUD Yvan/SCHWARTZ Eric Opel Manta GTE F2 14 9:55,3 +03:44,0 +00:03,4
73 73 SOUFFEZ Frédéric/PRUVOST Astrid Peugeot 206 Rc FA 7 9:56,5 +03:45,2 +00:01,2 1 2
74 95 FAUR Yoann/MASSON Kévin Peugeot 205 Rallye FN 1 10:07,4 +03:56,1 +00:10,9
75 79 CLEMENT Frédéric/COSTES François Peugeot 206 Rc F2 14 10:16,9 +04:05,6 +00:09,5 1 2
76 86 MAUVAIS Michel/PY Jean-Michel Peugeot 205 Rallye FA 5 10:40,6 +04:29,3 +00:23,7
77 91 DI PAOLO Alain/MORILLON Frederika Peugeot 106 S16 FN 2 10:48,4 +04:37,1 +00:07,8
78 93 BRAQUET Jean-Baptiste/BRAQUET Elyse Peugeot 106 XSI FN 1 10:57,5 +04:46,2 +00:09,1
79 76 VERRY Vanessa/OUVRY Eleonore Peugeot 206 Rc FA 7 12:16,3 +06:05,0 +01:18,8
80 60 EMANUEL Maxence/DALMASSO Pauline Ford Fiesta R2J R 2 12:17,0 +06:05,7 +00:00,7 4
81 92 FRANCOIS Léa/FRANCOIS Solene Peugeot 106 S16 FN 2 12:49,5 +06:38,2 +00:32,5
Clt Equipage Voiture Gr/Cl Temps Ecart 1er Ecart préc. Catégories
Commentaires: © PatricK Soft  
(Temps forfaitaires=couleur bleue)
Classés:81

Epreuve: Groupe: Catégorie:

 
Retour
Classement ES5-Saints-Geosmes - Noidant-le-Rocheux (10.000 km)